Time;durP1;ratioP1;P1;durP2;ratioP2;P2;SDS_P1;SDS_P2;PMS_P1;PMS_P2;Temp;Humidity;BMP_temperature;BMP_pressure;BME280_temperature;BME280_humidity;BME280_pressure;Samples;Min_cycle;Max_cycle;Signal;HPM_P1;HPM_P2
2021/07/25 00:01:51;;;;;;;0.40;0.00;;;;;;;24.14;46.02;100252.44;126108;1095;102894;-68
2021/07/25 00:04:19;;;;;;;0.40;0.00;;;;;;;24.16;45.59;100251.28;126064;1095;113855;-68
2021/07/25 00:06:46;;;;;;;0.40;0.00;;;;;;;24.10;45.93;100249.11;126114;1095;102960;-68
2021/07/25 00:09:13;;;;;;;0.40;0.00;;;;;;;24.10;46.15;100248.23;126054;1095;114020;-68
2021/07/25 00:11:40;;;;;;;0.40;0.00;;;;;;;24.07;46.33;100246.63;126141;1094;103358;-68
2021/07/25 00:14:07;;;;;;;0.40;0.00;;;;;;;24.14;46.08;100245.13;126030;1094;114288;-69
2021/07/25 00:16:35;;;;;;;0.40;0.00;;;;;;;24.20;46.18;100244.61;126248;1095;103069;-69
2021/07/25 00:19:02;;;;;;;0.40;0.00;;;;;;;24.19;46.36;100247.44;126051;1095;102983;-70
2021/07/25 00:21:29;;;;;;;0.40;0.00;;;;;;;24.21;46.49;100254.47;125997;1095;113969;-70
2021/07/25 00:23:59;;;;;;;0.40;0.00;;;;;;;24.16;46.79;100247.71;126113;1095;103173;-69
2021/07/25 00:26:27;;;;;;;0.40;0.00;;;;;;;24.07;46.35;100248.50;126089;1095;113562;-70
2021/07/25 00:28:54;;;;;;;0.40;0.00;;;;;;;24.08;46.25;100242.92;126167;1096;102884;-69
2021/07/25 00:31:24;;;;;;;0.40;0.00;;;;;;;24.06;46.83;100234.05;126196;1095;103371;-69
2021/07/25 00:33:51;;;;;;;0.40;0.00;;;;;;;23.93;47.11;100231.50;126050;1095;113961;-69
2021/07/25 00:36:19;;;;;;;0.40;0.00;;;;;;;23.89;46.93;100230.04;126132;1096;102973;-69
2021/07/25 00:38:46;;;;;;;0.40;0.00;;;;;;;23.93;46.68;100234.22;126091;1096;113996;-69
2021/07/25 00:41:15;;;;;;;0.40;0.00;;;;;;;23.86;46.79;100228.41;126213;1096;102935;-69
2021/07/25 00:43:44;;;;;;;0.40;0.00;;;;;;;23.88;46.84;100231.88;126194;1095;103124;-69
2021/07/25 00:46:13;;;;;;;0.40;0.00;;;;;;;23.84;47.07;100221.38;126116;1096;114582;-69
2021/07/25 00:48:40;;;;;;;0.40;0.00;;;;;;;23.79;47.30;100220.89;126202;1094;103550;-69
2021/07/25 00:51:08;;;;;;;0.40;0.00;;;;;;;23.75;47.08;100214.88;126066;1092;114014;-69
2021/07/25 00:53:37;;;;;;;0.40;0.00;;;;;;;23.68;47.46;100219.94;126199;1092;102953;-69
2021/07/25 00:56:08;;;;;;;0.40;0.00;;;;;;;23.69;46.79;100220.83;126071;1092;114135;-69
2021/07/25 00:58:40;;;;;;;0.40;0.00;;;;;;;23.65;47.46;100220.21;126236;1095;102879;-70
2021/07/25 01:01:08;;;;;;;0.40;0.00;;;;;;;23.63;47.98;100221.33;126204;1096;102988;-70
2021/07/25 01:03:54;;;;;;;0.40;0.00;;;;;;;23.57;47.68;100208.28;126024;1095;114008;-69
2021/07/25 01:06:44;;;;;;;0.40;0.00;;;;;;;23.56;47.74;100218.27;126152;1095;104140;-68
2021/07/25 01:09:36;;;;;;;0.40;0.00;;;;;;;23.56;48.36;100217.42;126076;1095;114160;-68
2021/07/25 01:12:06;;;;;;;0.40;0.00;;;;;;;23.52;48.25;100223.09;126222;1096;102990;-69
2021/07/25 01:14:35;;;;;;;0.40;0.00;;;;;;;23.45;48.38;100218.32;126079;1096;114162;-68
2021/07/25 01:17:25;;;;;;;0.40;0.00;;;;;;;23.44;48.40;100213.87;126172;1095;102988;-69
2021/07/25 01:20:09;;;;;;;0.40;0.00;;;;;;;23.36;48.36;100217.22;126242;1095;102977;-70
2021/07/25 01:22:44;;;;;;;0.40;0.00;;;;;;;23.29;48.70;100224.16;126151;1096;113739;-70
2021/07/25 01:25:14;;;;;;;0.40;0.00;;;;;;;23.25;48.84;100222.70;126159;1095;103335;-70
2021/07/25 01:27:55;;;;;;;0.40;0.00;;;;;;;23.24;48.82;100221.81;126063;1095;114186;-70
2021/07/25 01:30:25;;;;;;;0.40;0.00;;;;;;;23.21;48.64;100225.64;126176;1095;103112;-70
2021/07/25 01:32:56;;;;;;;0.40;0.00;;;;;;;23.17;48.41;100224.17;126188;1095;114181;-70
2021/07/25 01:35:25;;;;;;;0.40;0.00;;;;;;;23.16;48.78;100222.44;126173;1095;102876;-70
2021/07/25 01:37:52;;;;;;;0.40;0.00;;;;;;;23.16;49.24;100222.44;126232;1096;102891;-70
2021/07/25 01:40:24;;;;;;;0.40;0.00;;;;;;;23.15;48.93;100223.45;126025;1096;114063;-70
2021/07/25 01:42:55;;;;;;;0.40;0.00;;;;;;;23.05;48.97;100220.58;126311;1096;103012;-70
2021/07/25 01:45:23;;;;;;;0.40;0.00;;;;;;;23.06;49.59;100213.31;126026;1095;114123;-70
2021/07/25 01:47:50;;;;;;;0.40;0.00;;;;;;;23.05;49.44;100217.86;126249;1093;102932;-70
2021/07/25 01:50:17;;;;;;;0.40;0.00;;;;;;;23.09;49.54;100209.48;126065;1094;115007;-70
2021/07/25 01:52:45;;;;;;;0.40;0.00;;;;;;;23.00;49.60;100209.22;126178;1092;103010;-70
2021/07/25 01:55:13;;;;;;;0.40;0.00;;;;;;;22.97;50.38;100203.20;126113;1093;103487;-71
2021/07/25 01:57:40;;;;;;;0.40;0.00;;;;;;;22.96;50.22;100206.89;126168;1093;114002;-70
2021/07/25 02:00:08;;;;;;;0.40;0.00;;;;;;;22.98;50.41;100210.33;126134;1095;102894;-70
2021/07/25 02:02:35;;;;;;;0.40;0.00;;;;;;;22.99;50.11;100209.34;126171;1093;114159;-70
2021/07/25 02:05:05;;;;;;;0.40;0.00;;;;;;;22.86;50.67;100202.21;126169;1095;102881;-70
2021/07/25 02:07:32;;;;;;;0.40;0.00;;;;;;;22.85;50.55;100197.77;126245;1092;103364;-70
2021/07/25 02:09:59;;;;;;;0.40;0.00;;;;;;;22.85;50.97;100199.63;126054;1093;114039;-70
2021/07/25 02:12:26;;;;;;;0.40;0.00;;;;;;;22.81;50.64;100195.44;126228;1093;103438;-70
2021/07/25 02:14:53;;;;;;;0.40;0.00;;;;;;;22.81;50.93;100196.29;126065;1093;114379;-70
2021/07/25 02:17:21;;;;;;;0.40;0.00;;;;;;;22.84;50.81;100196.02;126213;1093;103039;-70
2021/07/25 02:19:48;;;;;;;0.40;0.00;;;;;;;22.82;51.46;100199.88;126158;1093;102914;-70
2021/07/25 02:22:15;;;;;;;0.40;0.00;;;;;;;22.76;50.95;100195.80;126129;1092;113984;-70
2021/07/25 02:24:43;;;;;;;0.40;0.00;;;;;;;22.68;51.26;100206.41;126088;1093;102968;-70
2021/07/25 02:27:10;;;;;;;0.40;0.00;;;;;;;22.63;51.13;100200.48;126073;1095;114142;-70
2021/07/25 02:29:37;;;;;;;0.40;0.00;;;;;;;22.59;51.23;100189.00;126271;1092;103103;-70
2021/07/25 02:32:04;;;;;;;0.40;0.00;;;;;;;22.58;51.50;100191.84;126212;1092;103371;-68
2021/07/25 02:34:32;;;;;;;0.40;0.00;;;;;;;22.57;51.29;100198.28;126105;1091;113852;-69
2021/07/25 02:36:59;;;;;;;0.40;0.00;;;;;;;22.58;52.00;100194.56;126187;1093;103065;-70
2021/07/25 02:39:27;;;;;;;0.40;0.00;;;;;;;22.51;52.38;100191.47;126089;1091;114012;-69
2021/07/25 02:41:54;;;;;;;0.40;0.00;;;;;;;22.51;52.60;100181.50;126176;1095;102884;-69
2021/07/25 02:44:21;;;;;;;0.40;0.00;;;;;;;22.51;52.30;100184.21;126092;1096;114163;-69
2021/07/25 02:46:48;;;;;;;0.40;0.00;;;;;;;22.45;52.78;100179.27;126257;1096;103045;-69
2021/07/25 02:49:16;;;;;;;0.40;0.00;;;;;;;22.44;52.62;100180.24;126170;1096;102878;-69
2021/07/25 02:51:43;;;;;;;0.40;0.00;;;;;;;22.38;53.02;100188.89;126064;1095;114287;-69
2021/07/25 02:54:10;;;;;;;0.40;0.00;;;;;;;22.32;53.04;100187.47;126228;1095;102882;-68
2021/07/25 02:56:38;;;;;;;0.40;0.00;;;;;;;22.26;52.94;100185.27;125968;1095;114131;-68
2021/07/25 02:59:05;;;;;;;0.40;0.00;;;;;;;22.20;52.79;100185.73;126116;1094;103349;-68
2021/07/25 03:01:32;;;;;;;0.40;0.00;;;;;;;22.15;53.23;100186.12;126129;1093;103026;-68
2021/07/25 03:04:00;;;;;;;0.40;0.00;;;;;;;22.18;53.31;100185.87;126065;1093;114137;-68
2021/07/25 03:06:27;;;;;;;0.40;0.00;;;;;;;22.14;53.84;100180.78;126218;1093;102940;-67
2021/07/25 03:08:54;;;;;;;0.40;0.00;;;;;;;22.10;53.84;100177.47;126122;1094;114302;-69
2021/07/25 03:11:21;;;;;;;0.40;0.00;;;;;;;22.13;53.81;100182.64;126293;1092;102990;-69
2021/07/25 03:13:48;;;;;;;0.40;0.00;;;;;;;22.11;53.94;100195.48;126199;1094;103194;-68
2021/07/25 03:16:17;;;;;;;0.40;0.00;;;;;;;22.12;53.63;100188.20;126103;1093;114035;-69
2021/07/25 03:18:44;;;;;;;0.40;0.00;;;;;;;22.13;53.57;100193.49;126211;1093;102887;-69
2021/07/25 03:21:11;;;;;;;0.40;0.00;;;;;;;22.14;54.18;100189.80;126082;1095;114045;-68
2021/07/25 03:23:38;;;;;;;0.40;0.00;;;;;;;22.16;54.58;100192.39;126192;1093;102919;-69
2021/07/25 03:26:05;;;;;;;0.40;0.00;;;;;;;22.13;54.34;100195.36;126111;1095;102959;-69
2021/07/25 03:28:32;;;;;;;0.40;0.00;;;;;;;22.13;54.76;100195.36;125990;1093;113876;-68
2021/07/25 03:31:00;;;;;;;0.40;0.00;;;;;;;22.14;54.42;100200.66;126104;1094;102966;-68
2021/07/25 03:33:27;;;;;;;0.40;0.00;;;;;;;22.12;54.95;100194.47;126011;1095;113987;-68
2021/07/25 03:35:54;;;;;;;0.40;0.00;;;;;;;22.13;54.61;100189.93;126136;1093;102982;-68
2021/07/25 03:38:22;;;;;;;0.40;0.00;;;;;;;22.11;54.47;100195.48;126025;1093;114461;-68
2021/07/25 03:40:49;;;;;;;0.40;0.00;;;;;;;22.16;54.70;100193.24;126102;1093;103078;-68
2021/07/25 03:43:17;;;;;;;0.40;0.00;;;;;;;22.19;54.84;100201.16;126182;1092;102910;-68
2021/07/25 03:45:46;;;;;;;0.40;0.00;;;;;;;22.16;55.42;100200.53;126008;1092;114012;-67
2021/07/25 03:48:14;;;;;;;0.40;0.00;;;;;;;22.16;55.22;100204.09;126166;1092;103018;-68
2021/07/25 03:50:41;;;;;;;0.40;0.00;;;;;;;22.21;55.45;100196.47;125986;1093;114265;-69
2021/07/25 03:53:09;;;;;;;0.40;0.00;;;;;;;22.25;55.17;100204.38;126141;1092;102988;-69
2021/07/25 03:55:36;;;;;;;0.40;0.00;;;;;;;22.22;54.54;100213.63;126085;1092;102876;-69
2021/07/25 03:58:04;;;;;;;0.40;0.00;;;;;;;22.19;55.20;100209.30;125999;1093;114178;-68
2021/07/25 04:00:32;;;;;;;0.40;0.00;;;;;;;22.19;55.18;100217.44;126044;1092;102975;-68
2021/07/25 04:02:59;;;;;;;0.40;0.00;;;;;;;22.21;54.84;100228.16;126001;1095;113982;-68
2021/07/25 04:05:27;;;;;;;0.40;0.00;;;;;;;22.15;55.09;100224.09;126070;1093;102999;-68
2021/07/25 04:07:55;;;;;;;0.40;0.00;;;;;;;22.13;54.94;100228.75;126157;1091;103325;-68
2021/07/25 04:10:22;;;;;;;0.40;0.00;;;;;;;22.12;55.39;100234.30;125972;1096;114069;-68
2021/07/25 04:12:50;;;;;;;0.40;0.00;;;;;;;22.15;55.31;100234.94;126093;1092;102985;-68
2021/07/25 04:15:17;;;;;;;0.40;0.00;;;;;;;22.16;55.49;100231.22;125972;1095;114098;-68
2021/07/25 04:17:44;;;;;;;0.40;0.00;;;;;;;22.16;55.40;100236.64;126147;1096;102944;-69
2021/07/25 04:20:11;;;;;;;0.40;0.00;;;;;;;22.17;55.67;100232.10;126082;1092;103028;-69
2021/07/25 04:22:39;;;;;;;0.40;0.00;;;;;;;22.21;55.53;100239.02;126028;1093;114113;-68
2021/07/25 04:25:07;;;;;;;0.40;0.00;;;;;;;22.27;55.56;100226.81;126062;1092;102900;-68
2021/07/25 04:27:35;;;;;;;0.40;0.00;;;;;;;22.31;56.48;100229.18;126212;1093;113968;-68
2021/07/25 04:30:03;;;;;;;0.40;0.00;;;;;;;22.42;56.85;100239.22;126100;1093;102898;-68
2021/07/25 04:32:30;;;;;;;0.40;0.00;;;;;;;22.47;56.31;100237.02;126012;1094;114299;-68
2021/07/25 04:34:58;;;;;;;0.40;0.00;;;;;;;22.54;55.97;100231.95;126232;1095;102873;-69
2021/07/25 04:37:29;;;;;;;0.40;0.00;;;;;;;22.52;55.04;100234.77;126189;1096;103018;-69
2021/07/25 04:39:57;;;;;;;0.40;0.00;;;;;;;22.51;55.25;100230.35;126115;1093;113973;-69
2021/07/25 04:42:26;;;;;;;0.40;0.00;;;;;;;22.45;55.09;100232.69;126180;1094;103007;-69
2021/07/25 04:45:05;;;;;;;0.40;0.00;;;;;;;22.46;55.87;100232.56;126215;1094;114253;-69
2021/07/25 04:47:43;;;;;;;0.40;0.00;;;;;;;22.51;55.88;100238.49;126259;1095;104081;-69
2021/07/25 04:50:16;;;;;;;0.40;0.00;;;;;;;22.49;55.82;100235.02;126100;1094;102900;-69
2021/07/25 04:52:51;;;;;;;0.40;0.00;;;;;;;22.54;56.41;100242.81;126459;1094;113811;-69
2021/07/25 04:55:22;;;;;;;0.40;0.00;;;;;;;22.66;55.47;100240.98;126094;1094;102896;-69
2021/07/25 04:57:57;;;;;;;0.40;0.00;;;;;;;22.74;56.53;100234.91;126037;1095;114097;-69
2021/07/25 05:00:25;;;;;;;0.40;0.00;;;;;;;22.77;55.12;100232.82;126117;1095;103441;-69
2021/07/25 05:03:00;;;;;;;0.40;0.00;;;;;;;22.78;55.23;100239.10;126034;1095;114255;-69
2021/07/25 05:05:28;;;;;;;0.40;0.00;;;;;;;22.83;55.41;100242.31;126134;1095;102904;-69
2021/07/25 05:08:00;;;;;;;0.40;0.00;;;;;;;22.85;55.04;100248.50;126164;1095;103022;-69
2021/07/25 05:10:31;;;;;;;0.40;0.00;;;;;;;22.91;55.35;100242.56;126204;1093;114120;-69
2021/07/25 05:13:18;;;;;;;0.40;0.00;;;;;;;22.96;54.81;100248.48;126137;1094;103016;-69
2021/07/25 05:15:46;;;;;;;0.40;0.00;;;;;;;22.96;55.00;100253.06;126055;1093;114089;-69
2021/07/25 05:18:21;;;;;;;0.40;0.00;;;;;;;22.97;55.32;100255.66;126160;1091;103048;-69
2021/07/25 05:20:58;;;;;;;0.40;0.00;;;;;;;22.99;55.63;100250.09;126188;1096;114278;-69
2021/07/25 05:23:33;;;;;;;0.40;0.00;;;;;;;22.99;54.97;100247.38;126145;1095;102889;-69
2021/07/25 05:26:00;;;;;;;0.40;0.00;;;;;;;22.96;55.25;100248.48;126442;1093;102892;-69
2021/07/25 05:28:28;;;;;;;0.40;0.00;;;;;;;22.97;54.73;100246.66;126082;1093;114035;-69
2021/07/25 05:30:56;;;;;;;0.40;0.00;;;;;;;22.95;54.98;100240.47;126308;1093;102875;-69
2021/07/25 05:33:24;;;;;;;0.40;0.00;;;;;;;22.97;55.64;100236.64;126102;1093;114024;-68
2021/07/25 05:35:51;;;;;;;0.40;0.00;;;;;;;23.03;54.89;100225.28;126093;1095;102949;-69
2021/07/25 05:38:18;;;;;;;0.40;0.00;;;;;;;23.14;55.38;100232.59;126092;1094;102983;-69
2021/07/25 05:40:46;;;;;;;0.40;0.00;;;;;;;23.26;55.30;100230.72;125986;1093;113847;-69
2021/07/25 05:43:14;;;;;;;0.40;0.00;;;;;;;23.38;54.94;100242.43;126114;1096;103329;-69
2021/07/25 05:45:41;;;;;;;0.40;0.00;;;;;;;23.49;55.89;100238.81;126233;1093;114053;-69
2021/07/25 05:48:09;;;;;;;0.40;0.00;;;;;;;23.59;54.50;100238.90;126082;1093;103560;-68
2021/07/25 05:50:36;;;;;;;0.40;0.00;;;;;;;23.61;54.76;100237.78;125999;1095;114238;-67
2021/07/25 05:53:04;;;;;;;0.40;0.00;;;;;;;23.57;53.99;100241.75;126089;1096;102969;-68
2021/07/25 05:55:33;;;;;;;0.40;0.00;;;;;;;23.52;54.15;100247.55;126096;1093;103108;-70
2021/07/25 05:58:01;;;;;;;0.40;0.00;;;;;;;23.52;54.87;100241.27;126103;1096;114047;-68
2021/07/25 06:00:29;;;;;;;0.40;0.00;;;;;;;23.62;54.78;100241.34;126189;1092;103035;-68
2021/07/25 06:02:56;;;;;;;0.40;0.00;;;;;;;23.73;54.58;100235.89;125937;1093;114369;-68
2021/07/25 06:05:29;;;;;;;0.40;0.00;;;;;;;23.78;54.30;100233.64;126336;1093;102887;-68
2021/07/25 06:07:57;;;;;;;0.40;0.00;;;;;;;23.84;54.25;100243.98;126071;1093;102951;-68
2021/07/25 06:10:28;;;;;;;0.40;0.00;;;;;;;23.91;55.27;100241.63;126295;1093;113944;-68
2021/07/25 06:13:00;;;;;;;0.40;0.00;;;;;;;23.98;54.13;100247.45;126034;1094;102878;-70
2021/07/25 06:15:29;;;;;;;0.40;0.00;;;;;;;24.14;54.39;100238.83;125980;1093;113946;-69
2021/07/25 06:17:57;;;;;;;0.40;0.00;;;;;;;24.26;54.11;100240.48;126084;1093;103021;-68
2021/07/25 06:20:24;;;;;;;0.40;0.00;;;;;;;24.30;52.81;100231.05;126785;1093;115794;-68
2021/07/25 06:22:52;;;;;;;0.40;0.00;;;;;;;24.28;52.35;100232.18;125989;1093;102981;-69
2021/07/25 06:25:24;;;;;;;0.40;0.00;;;;;;;24.30;52.85;100230.17;126140;1095;103009;-71
2021/07/25 06:27:54;;;;;;;0.40;0.00;;;;;;;24.29;52.92;100229.32;126022;1093;113982;-67
2021/07/25 06:30:23;;;;;;;0.40;0.00;;;;;;;24.37;53.88;100234.10;126074;1092;102868;-68
2021/07/25 06:33:07;;;;;;;0.40;0.00;;;;;;;24.37;53.10;100234.10;126088;1092;114163;-68
2021/07/25 06:35:42;;;;;;;0.40;0.00;;;;;;;24.48;53.32;100236.73;126132;1092;103036;-68
2021/07/25 06:38:14;;;;;;;0.40;0.00;;;;;;;24.56;53.09;100232.49;126135;1093;103010;-68
2021/07/25 06:40:51;;;;;;;0.40;0.00;;;;;;;24.66;53.71;100228.00;126077;1093;113857;-69
2021/07/25 06:43:21;;;;;;;0.40;0.00;;;;;;;24.76;54.29;100238.92;126293;1093;103103;-70
2021/07/25 06:45:55;;;;;;;0.40;0.00;;;;;;;24.85;53.96;100236.23;126021;1093;113980;-69
2021/07/25 06:48:24;;;;;;;0.40;0.00;;;;;;;24.95;53.42;100224.52;126216;1093;103332;-69
2021/07/25 06:50:53;;;;;;;0.40;0.00;;;;;;;24.99;52.73;100221.39;126074;1095;114108;-69
2021/07/25 06:53:22;;;;;;;0.40;0.00;;;;;;;25.05;53.11;100230.87;126150;1092;102986;-69
2021/07/25 06:55:50;;;;;;;0.40;0.00;;;;;;;25.11;52.74;100235.77;126562;1095;102976;-70
2021/07/25 06:58:18;;;;;;;0.40;0.00;;;;;;;25.24;52.92;100240.10;126033;1093;114039;-69
2021/07/25 07:00:45;;;;;;;0.40;0.00;;;;;;;25.25;52.11;100237.23;126197;1092;103406;-69
2021/07/25 07:03:13;;;;;;;0.40;0.00;;;;;;;25.25;51.66;100234.51;125994;1093;113996;-70
2021/07/25 07:05:40;;;;;;;0.40;0.00;;;;;;;25.28;51.83;100236.94;126149;1093;102980;-69
2021/07/25 07:08:07;;;;;;;0.40;0.00;;;;;;;25.37;52.95;100236.14;126163;1095;103105;-69
2021/07/25 07:10:38;;;;;;;0.40;0.00;;;;;;;25.48;52.13;100235.15;126088;1096;114004;-69
2021/07/25 07:13:11;;;;;;;0.40;0.00;;;;;;;25.53;50.68;100235.59;126133;1093;102875;-69
2021/07/25 07:15:40;;;;;;;0.40;0.00;;;;;;;25.50;50.95;100235.03;126066;1091;113299;-69
2021/07/25 07:18:08;;;;;;;0.40;0.00;;;;;;;25.53;51.35;100232.86;126163;1093;102975;-69
2021/07/25 07:20:35;;;;;;;0.40;0.00;;;;;;;25.63;52.55;100238.34;126202;1095;114336;-69
2021/07/25 07:23:11;;;;;;;0.40;0.00;;;;;;;25.74;52.05;100231.89;126053;1095;102895;-70
2021/07/25 07:25:49;;;;;;;0.40;0.00;;;;;;;25.77;50.21;100231.59;126118;1093;102891;-70
2021/07/25 07:28:18;;;;;;;0.40;0.00;;;;;;;25.87;51.16;100221.55;126031;1095;115004;-71
2021/07/25 07:30:47;;;;;;;0.40;0.00;;;;;;;25.98;51.61;100236.91;126132;1091;102705;-70
2021/07/25 07:33:16;;;;;;;0.40;0.00;;;;;;;25.96;50.29;100240.78;126103;1096;113907;-70
2021/07/25 07:35:44;;;;;;;0.40;0.00;;;;;;;26.03;50.61;100233.77;126130;1093;103010;-70
2021/07/25 07:38:12;;;;;;;0.40;0.00;;;;;;;26.08;50.04;100236.08;126135;1093;103600;-70
2021/07/25 07:40:40;;;;;;;0.40;0.00;;;;;;;26.11;50.67;100233.92;126067;1092;113919;-69
2021/07/25 07:43:10;;;;;;;0.40;0.00;;;;;;;26.16;50.69;100233.47;126095;1095;103341;-69
2021/07/25 07:45:38;;;;;;;0.40;0.00;;;;;;;26.27;50.70;100226.98;125993;1093;114005;-68
2021/07/25 07:48:06;;;;;;;0.40;0.00;;;;;;;26.37;50.15;100227.84;126077;1093;103345;-69
2021/07/25 07:50:34;;;;;;;0.40;0.00;;;;;;;26.44;50.29;100228.95;126082;1093;114151;-69
2021/07/25 07:53:02;;;;;;;0.40;0.00;;;;;;;26.59;50.78;100233.95;125984;1093;103092;-68
2021/07/25 07:55:29;;;;;;;0.40;0.00;;;;;;;26.64;49.24;100234.36;126243;1093;103051;-69
2021/07/25 07:57:56;;;;;;;0.40;0.00;;;;;;;26.67;49.32;100234.94;126013;1093;114361;-69
2021/07/25 08:00:24;;;;;;;0.40;0.00;;;;;;;26.68;49.04;100246.72;126192;1093;102890;-69
2021/07/25 08:02:51;;;;;;;0.40;0.00;;;;;;;26.66;48.43;100235.94;125995;1093;114233;-69
2021/07/25 08:05:19;;;;;;;0.40;0.00;;;;;;;26.73;50.23;100233.51;126032;1092;102916;-70
2021/07/25 08:07:47;;;;;;;0.40;0.00;;;;;;;26.81;48.41;100238.23;126050;1095;102916;-72
2021/07/25 08:10:14;;;;;;;0.40;0.00;;;;;;;26.90;49.12;100241.91;126282;1093;114512;-70
2021/07/25 08:12:42;;;;;;;0.40;0.00;;;;;;;27.00;48.05;100240.00;126044;1094;102997;-70
2021/07/25 08:15:12;;;;;;;0.40;0.00;;;;;;;27.08;49.92;100236.52;126336;1093;114121;-71
2021/07/25 08:17:39;;;;;;;0.40;0.00;;;;;;;27.18;49.20;100240.07;126095;1093;104001;-70
2021/07/25 08:20:07;;;;;;;0.40;0.00;;;;;;;27.32;50.38;100245.00;126084;1095;102869;-69
2021/07/25 08:22:35;;;;;;;0.40;0.00;;;;;;;27.41;49.74;100235.06;125916;1093;113980;-71
2021/07/25 08:25:04;;;;;;;0.40;0.00;;;;;;;27.47;47.12;100241.78;126113;1095;102903;-71
2021/07/25 08:27:31;;;;;;;0.40;0.00;;;;;;;27.53;47.15;100241.17;125900;1093;113468;-71
2021/07/25 08:29:58;;;;;;;0.40;0.00;;;;;;;27.59;47.12;100242.42;126086;1093;103009;-71
2021/07/25 08:32:25;;;;;;;0.40;0.00;;;;;;;27.62;46.64;100233.92;125994;1092;114091;-71
2021/07/25 08:34:52;;;;;;;0.40;0.00;;;;;;;27.73;47.15;100239.15;126131;1093;102913;-71
2021/07/25 08:37:20;;;;;;;0.40;0.00;;;;;;;27.84;48.06;100238.05;126143;1092;103062;-70
2021/07/25 08:39:47;;;;;;;0.40;0.00;;;;;;;27.98;47.72;100231.17;126032;1095;114139;-71
2021/07/25 08:42:17;;;;;;;0.40;0.00;;;;;;;28.21;47.54;100233.45;126094;1093;103013;-71
2021/07/25 08:44:48;;;;;;;0.40;0.00;;;;;;;28.24;45.20;100231.22;126050;1092;114143;-71
2021/07/25 08:47:32;;;;;;;0.40;0.00;;;;;;;28.25;45.30;100232.95;126087;1092;102849;-71
2021/07/25 08:50:07;;;;;;;0.40;0.00;;;;;;;28.33;44.53;100230.27;126197;1095;102881;-71
2021/07/25 08:52:40;;;;;;;0.40;0.00;;;;;;;28.35;44.64;100235.58;125977;1095;114152;-71
2021/07/25 08:55:18;;;;;;;0.40;0.00;;;;;;;28.56;46.80;100231.63;126210;1093;102891;-69
2021/07/25 08:57:50;;;;;;;0.40;0.00;;;;;;;28.77;45.35;100231.27;126000;1094;114188;-71
2021/07/25 09:00:19;;;;;;;0.40;0.00;;;;;;;28.88;44.27;100230.12;126120;1093;102916;-72
2021/07/25 09:02:48;;;;;;;0.40;0.00;;;;;;;29.05;45.65;100231.91;125950;1095;114095;-73
2021/07/25 09:05:16;;;;;;;0.40;0.00;;;;;;;29.21;43.05;100227.52;126114;1093;102885;-71
2021/07/25 09:07:45;;;;;;;0.40;0.00;;;;;;;29.16;42.39;100228.88;126083;1092;102938;-72
2021/07/25 09:10:19;;;;;;;0.40;0.00;;;;;;;29.18;42.89;100229.55;126017;1093;114433;-73
2021/07/25 09:12:47;;;;;;;0.40;0.00;;;;;;;29.30;43.18;100223.80;126049;1093;103345;-71
2021/07/25 09:15:17;;;;;;;0.40;0.00;;;;;;;29.44;43.00;100225.88;126033;1096;114482;-71
2021/07/25 09:17:47;;;;;;;0.40;0.00;;;;;;;29.60;42.97;100222.30;126127;1092;103351;-71
2021/07/25 09:20:15;;;;;;;0.40;0.00;;;;;;;29.77;42.40;100223.19;126088;1093;102885;-71
2021/07/25 09:22:53;;;;;;;0.40;0.00;;;;;;;29.94;42.47;100226.84;125966;1093;113374;-70
2021/07/25 09:25:20;;;;;;;0.40;0.00;;;;;;;29.96;42.18;100216.53;126065;1092;102958;-71
2021/07/25 09:28:07;;;;;;;0.40;0.00;;;;;;;30.20;42.55;100225.80;125976;1093;114315;-71
2021/07/25 09:30:34;;;;;;;0.40;0.00;;;;;;;30.46;42.25;100227.53;126126;1092;103050;-71
2021/07/25 09:33:23;;;;;;;0.40;0.00;;;;;;;30.69;42.37;100219.39;125947;1095;114802;-71
2021/07/25 09:35:50;;;;;;;0.40;0.00;;;;;;;31.46;41.91;100226.13;126084;1095;103012;-71
2021/07/25 09:38:19;;;;;;;0.40;0.00;;;;;;;32.58;37.27;100220.06;126037;1095;102923;-71
2021/07/25 09:40:47;;;;;;;0.40;0.00;;;;;;;33.55;35.39;100222.84;126037;1092;113789;-71
2021/07/25 09:43:18;;;;;;;0.40;0.00;;;;;;;34.44;33.81;100219.69;127064;1095;103071;-72
2021/07/25 09:45:54;;;;;;;0.40;0.00;;;;;;;35.22;33.60;100217.80;126021;1094;114124;-72
2021/07/25 09:48:23;;;;;;;0.40;0.00;;;;;;;35.85;31.56;100233.35;126119;1093;102887;-72
2021/07/25 09:50:53;;;;;;;0.40;0.00;;;;;;;36.38;30.34;100229.77;126001;1093;114095;-72
2021/07/25 09:53:20;;;;;;;0.40;0.00;;;;;;;36.78;28.47;100233.31;126008;1094;102903;-73
2021/07/25 09:55:48;;;;;;;0.40;0.00;;;;;;;36.95;29.20;100224.55;126086;1095;102887;-71
2021/07/25 09:58:16;;;;;;;0.40;0.00;;;;;;;37.58;29.24;100223.84;125935;1095;114410;-71
2021/07/25 10:00:45;;;;;;;0.40;0.00;;;;;;;38.07;28.26;100214.95;126057;1095;102946;-71
2021/07/25 10:03:21;;;;;;;0.40;0.00;;;;;;;38.32;26.79;100223.32;126026;1095;114403;-71
2021/07/25 10:05:49;;;;;;;0.40;0.00;;;;;;;38.62;25.86;100217.05;126107;1095;102884;-71
2021/07/25 10:08:18;;;;;;;0.40;0.00;;;;;;;38.76;25.84;100220.55;126320;1093;102891;-71
2021/07/25 10:10:47;;;;;;;0.40;0.00;;;;;;;38.76;26.06;100214.98;126018;1094;113682;-71
2021/07/25 10:13:20;;;;;;;0.40;0.00;;;;;;;39.06;24.67;100222.58;126103;1095;103371;-71
2021/07/25 10:15:53;;;;;;;0.40;0.00;;;;;;;39.01;24.48;100222.41;125985;1096;114230;-71
2021/07/25 10:18:22;;;;;;;0.40;0.00;;;;;;;39.27;23.73;100213.74;126183;1095;102978;-71
2021/07/25 10:20:51;;;;;;;0.40;0.00;;;;;;;39.57;24.36;100224.03;126010;1095;114132;-72
2021/07/25 10:23:22;;;;;;;0.40;0.00;;;;;;;39.77;24.43;100228.49;126044;1095;102917;-71
2021/07/25 10:25:50;;;;;;;0.40;0.00;;;;;;;39.78;24.44;100224.63;126157;1095;103016;-71
2021/07/25 10:28:19;;;;;;;0.40;0.00;;;;;;;39.88;23.37;100216.53;126065;1095;115441;-71
2021/07/25 10:30:50;;;;;;;0.40;0.00;;;;;;;39.81;24.05;100217.72;126090;1095;102909;-72
2021/07/25 10:33:18;;;;;;;0.40;0.00;;;;;;;39.91;24.31;100213.26;126021;1096;114128;-72
2021/07/25 10:35:46;;;;;;;0.40;0.00;;;;;;;40.00;24.05;100210.11;126116;1095;103093;-72
2021/07/25 10:38:14;;;;;;;0.40;0.00;;;;;;;40.33;24.71;100203.14;126218;1095;102965;-71
2021/07/25 10:40:44;;;;;;;0.40;0.00;;;;;;;40.43;21.85;100207.02;126046;1095;113818;-72
2021/07/25 10:43:13;;;;;;;0.40;0.00;;;;;;;40.18;23.43;100201.67;126158;1093;102888;-72
2021/07/25 10:45:41;;;;;;;0.40;0.00;;;;;;;40.33;22.77;100195.60;125990;1093;114015;-71
2021/07/25 10:48:12;;;;;;;0.40;0.00;;;;;;;40.42;22.97;100193.31;126055;1096;102971;-72
2021/07/25 10:50:40;;;;;;;0.40;0.00;;;;;;;40.37;23.10;100199.60;126013;1094;114225;-71
2021/07/25 10:53:07;;;;;;;0.40;0.00;;;;;;;40.60;23.22;100198.78;126076;1095;103152;-71
2021/07/25 10:55:43;;;;;;;0.40;0.00;;;;;;;40.94;23.13;100196.18;126172;1094;103012;-70
2021/07/25 10:58:16;;;;;;;0.40;0.00;;;;;;;40.99;22.08;100200.17;125999;1096;114068;-72
2021/07/25 11:00:57;;;;;;;0.40;0.00;;;;;;;41.17;21.31;100191.61;126110;1096;103025;-71
2021/07/25 11:03:25;;;;;;;0.40;0.00;;;;;;;40.97;21.91;100191.20;126064;1096;114192;-71
2021/07/25 11:06:13;;;;;;;0.40;0.00;;;;;;;40.08;22.51;100199.49;126098;1095;103033;-71
2021/07/25 11:08:43;;;;;;;0.40;0.00;;;;;;;38.78;24.38;100194.19;126081;1096;114233;-72
2021/07/25 11:11:26;;;;;;;0.40;0.00;;;;;;;37.98;24.65;100200.50;126116;1096;102936;-72
2021/07/25 11:13:54;;;;;;;0.40;0.00;;;;;;;37.27;26.52;100196.83;126208;1094;103010;-72
2021/07/25 11:16:42;;;;;;;0.40;0.00;;;;;;;36.79;27.06;100198.10;126004;1095;113893;-72
2021/07/25 11:19:11;;;;;;;0.40;0.00;;;;;;;36.37;27.79;100190.07;126156;1095;102996;-71
2021/07/25 11:21:40;;;;;;;0.40;0.00;;;;;;;35.81;27.84;100197.70;126020;1095;113924;-71